Time;durP1;ratioP1;P1;durP2;ratioP2;P2;SDS_P1;SDS_P2;PMS_P1;PMS_P2;Temp;Humidity;BMP_temperature;BMP_pressure;BME280_temperature;BME280_humidity;BME280_pressure;Samples;Min_cycle;Max_cycle;Signal;HPM_P1;HPM_P2
2022/03/08 00:00:29;;;;;;;20.83;8.30;;;;;;;0.02;70.81;100416.88;4998461;28;20135;-46
2022/03/08 00:02:57;;;;;;;24.70;8.77;;;;;;;0.00;70.09;100409.19;4996632;28;20084;-48
2022/03/08 00:05:25;;;;;;;18.88;7.03;;;;;;;-0.02;70.64;100406.56;4996493;28;20054;-44
2022/03/08 00:07:53;;;;;;;21.77;6.97;;;;;;;-0.04;70.55;100408.16;4997425;28;20129;-46
2022/03/08 00:10:20;;;;;;;22.20;8.18;;;;;;;-0.06;70.30;100404.69;4997907;28;20389;-44
2022/03/08 00:12:47;;;;;;;20.25;7.95;;;;;;;-0.07;70.84;100408.00;5001953;28;23685;-48
2022/03/08 00:15:18;;;;;;;23.65;8.30;;;;;;;-0.07;70.54;100402.06;4997704;28;20112;-46
2022/03/08 00:17:45;;;;;;;21.95;7.40;;;;;;;-0.11;70.51;100393.41;5001176;28;20422;-47
2022/03/08 00:20:12;;;;;;;22.08;7.07;;;;;;;-0.13;70.41;100392.47;5001937;28;20656;-45
2022/03/08 00:22:40;;;;;;;20.80;7.68;;;;;;;-0.15;71.10;100389.84;5000789;28;20582;-46
2022/03/08 00:25:09;;;;;;;23.13;8.30;;;;;;;-0.16;70.67;100387.22;5002148;28;20077;-46
2022/03/08 00:27:36;;;;;;;18.90;8.00;;;;;;;-0.19;70.52;100381.97;4998850;28;20490;-48
2022/03/08 00:30:04;;;;;;;19.20;7.32;;;;;;;-0.20;70.31;100377.69;4996293;28;20054;-49
2022/03/08 00:32:31;;;;;;;21.48;7.82;;;;;;;-0.24;70.42;100374.13;4996349;28;20041;-41
2022/03/08 00:34:58;;;;;;;21.55;8.05;;;;;;;-0.23;70.72;100382.66;5001367;28;20064;-47
2022/03/08 00:37:24;;;;;;;22.42;8.98;;;;;;;-0.26;70.38;100371.50;4999514;28;20050;-46
2022/03/08 00:39:51;;;;;;;19.38;7.25;;;;;;;-0.28;70.90;100368.03;4994966;28;20054;-50
2022/03/08 00:42:18;;;;;;;22.98;9.18;;;;;;;-0.30;70.73;100367.06;4996334;28;20054;-45
2022/03/08 00:44:44;;;;;;;17.98;8.48;;;;;;;-0.33;70.97;100364.41;4998825;28;20533;-46
2022/03/08 00:47:11;;;;;;;23.17;8.15;;;;;;;-0.36;70.57;100354.06;4997863;28;20524;-44
2022/03/08 00:49:39;;;;;;;20.85;8.43;;;;;;;-0.37;70.79;100346.38;4998741;28;20101;-47
2022/03/08 00:52:07;;;;;;;21.65;8.30;;;;;;;-0.38;71.15;100345.47;4997504;28;20050;-42
2022/03/08 00:54:34;;;;;;;19.45;7.68;;;;;;;-0.43;71.73;100342.75;5002378;28;20401;-43
2022/03/08 00:57:01;;;;;;;18.73;7.15;;;;;;;-0.47;71.75;100340.81;5001153;28;20529;-46
2022/03/08 00:59:28;;;;;;;17.10;7.15;;;;;;;-0.51;72.35;100333.84;4997488;28;20056;-43
2022/03/08 01:01:54;;;;;;;22.27;8.25;;;;;;;-0.54;72.17;100329.50;4998817;28;20046;-45
2022/03/08 01:04:21;;;;;;;18.80;7.22;;;;;;;-0.56;72.10;100320.94;5001699;28;20516;-46
2022/03/08 01:06:48;;;;;;;21.35;8.77;;;;;;;-0.59;72.59;100325.88;4998149;28;20058;-43
2022/03/08 01:09:14;;;;;;;16.40;7.85;;;;;;;-0.62;72.30;100320.63;4995335;28;20050;-44
2022/03/08 01:11:42;;;;;;;18.80;6.80;;;;;;;-0.64;72.47;100312.06;5003876;28;20062;-46
2022/03/08 01:14:09;;;;;;;24.05;8.82;;;;;;;-0.63;72.48;100316.34;4997275;28;20054;-45
2022/03/08 01:16:37;;;;;;;12.77;4.90;;;;;;;-0.72;73.01;100311.69;4997394;28;20050;-49
2022/03/08 01:19:05;;;;;;;16.55;6.13;;;;;;;-0.73;72.55;100309.97;4999921;28;20106;-45
2022/03/08 01:21:36;;;;;;;20.05;8.02;;;;;;;-0.76;72.16;100291.13;4995471;28;20752;-46
2022/03/08 01:24:04;;;;;;;19.77;7.18;;;;;;;-0.78;72.56;100299.56;4999175;28;20049;-44
2022/03/08 01:26:31;;;;;;;21.00;7.88;;;;;;;-0.81;72.31;100294.31;4992929;28;20104;-46
2022/03/08 01:28:58;;;;;;;19.13;7.43;;;;;;;-0.80;72.19;100293.53;4995555;28;20054;-43
2022/03/08 01:31:25;;;;;;;19.95;7.28;;;;;;;-0.80;72.12;100291.00;4991258;28;20053;-43
2022/03/08 01:33:54;;;;;;;18.05;7.90;;;;;;;-0.82;71.59;100295.13;4992764;28;20062;-43
2022/03/08 01:36:22;;;;;;;28.90;9.02;;;;;;;-0.84;71.90;100296.72;4999020;28;20170;-43
2022/03/08 01:38:49;;;;;;;23.80;7.93;;;;;;;-0.85;71.81;100292.44;4995727;28;20053;-45
2022/03/08 01:41:33;;;;;;;22.45;7.35;;;;;;;-0.86;71.43;100282.19;5000226;28;20045;-43
2022/03/08 01:44:00;;;;;;;18.88;8.07;;;;;;;-0.86;71.54;100293.25;4992312;28;20062;-43
2022/03/08 01:46:27;;;;;;;22.15;8.18;;;;;;;-0.87;72.08;100283.88;5004449;28;20050;-46
2022/03/08 01:48:54;;;;;;;26.73;8.48;;;;;;;-0.88;71.74;100282.09;5002273;28;20049;-42
2022/03/08 01:51:21;;;;;;;20.65;7.72;;;;;;;-0.89;71.70;100280.38;5004047;28;20130;-44
2022/03/08 01:53:48;;;;;;;21.42;7.05;;;;;;;-0.90;71.87;100276.09;4997411;28;20119;-43
2022/03/08 01:56:15;;;;;;;17.83;7.05;;;;;;;-0.92;71.92;100270.03;5001991;28;20073;-44
2022/03/08 01:58:41;;;;;;;18.42;7.15;;;;;;;-0.94;71.91;100266.56;5000863;28;20061;-43
2022/03/08 02:01:08;;;;;;;20.65;7.45;;;;;;;-0.96;71.82;100265.63;4998933;28;20053;-43
2022/03/08 02:03:35;;;;;;;15.18;6.38;;;;;;;-0.97;72.09;100258.78;4999173;28;20136;-42
2022/03/08 02:06:02;;;;;;;16.13;6.32;;;;;;;-0.99;71.67;100257.84;4999837;28;20469;-46
2022/03/08 02:08:30;;;;;;;18.33;7.07;;;;;;;-1.01;71.69;100259.44;5000703;28;20492;-42
2022/03/08 02:10:57;;;;;;;20.65;8.27;;;;;;;-1.04;71.80;100257.63;4994934;28;20061;-45
2022/03/08 02:13:26;;;;;;;25.15;9.38;;;;;;;-1.08;71.83;100251.53;4991291;28;20691;-46
2022/03/08 02:15:54;;;;;;;19.67;7.35;;;;;;;-1.09;71.55;100239.63;4988588;28;20053;-48
2022/03/08 02:18:21;;;;;;;18.48;6.60;;;;;;;-1.11;71.98;100242.88;4995548;28;20401;-44
2022/03/08 02:20:48;;;;;;;26.80;8.07;;;;;;;-1.13;71.96;100240.28;5001829;28;20058;-43
2022/03/08 02:23:15;;;;;;;19.27;7.10;;;;;;;-1.15;71.95;100236.75;5001401;28;20129;-46
2022/03/08 02:25:42;;;;;;;19.52;6.82;;;;;;;-1.17;72.10;100238.38;4993984;28;20509;-45
2022/03/08 02:28:08;;;;;;;18.25;6.43;;;;;;;-1.18;72.04;100227.31;5000727;28;20050;-47
2022/03/08 02:30:35;;;;;;;18.60;7.53;;;;;;;-1.17;71.92;100224.00;5001857;28;20054;-44
2022/03/08 02:33:02;;;;;;;15.23;6.32;;;;;;;-1.16;72.09;100214.69;5001310;28;20058;-43
2022/03/08 02:35:31;;;;;;;18.65;7.63;;;;;;;-1.18;71.63;100212.06;4995060;28;20918;-43
2022/03/08 02:38:01;;;;;;;21.45;7.88;;;;;;;-1.21;71.72;100206.84;5000795;28;20054;-47
2022/03/08 02:40:32;;;;;;;;;;;;;;;-1.25;71.74;100199.03;4994233;28;20042;-46
2022/03/08 02:43:00;;;;;;;19.08;6.70;;;;;;;-1.29;71.38;100197.97;5000676;28;20030;-44
2022/03/08 02:45:27;;;;;;;20.30;7.68;;;;;;;-1.32;71.99;100203.78;4995343;28;20050;-43
2022/03/08 02:47:54;;;;;;;21.30;7.22;;;;;;;-1.34;72.36;100195.25;5003118;28;20137;-44
2022/03/08 02:50:21;;;;;;;18.17;6.45;;;;;;;-1.34;71.78;100194.34;5001605;28;20050;-45
2022/03/08 02:52:51;;;;;;;14.18;6.40;;;;;;;-1.36;72.36;100191.75;5001400;28;20061;-43
2022/03/08 02:55:20;;;;;;;21.85;7.35;;;;;;;-1.37;72.41;100184.94;5000721;28;20104;-43
2022/03/08 02:57:47;;;;;;;17.85;8.27;;;;;;;-1.38;72.43;100178.09;4996902;28;20140;-45
2022/03/08 03:00:16;;;;;;;17.73;6.15;;;;;;;-1.40;72.10;100179.69;4999613;28;20058;-45
2022/03/08 03:02:43;;;;;;;26.27;8.55;;;;;;;-1.44;71.96;100172.72;4998267;28;20046;-47
2022/03/08 03:05:10;;;;;;;17.33;6.50;;;;;;;-1.45;72.29;100171.84;4996788;28;20442;-46
2022/03/08 03:07:37;;;;;;;13.38;5.88;;;;;;;-1.44;72.35;100172.72;4999737;28;20041;-45
2022/03/08 03:10:07;;;;;;;20.60;7.47;;;;;;;-1.44;71.91;100167.63;4994288;28;20106;-47
2022/03/08 03:12:33;;;;;;;16.35;7.53;;;;;;;-1.46;72.63;100164.13;5000156;28;20077;-45
2022/03/08 03:15:03;;;;;;;18.95;7.07;;;;;;;-1.48;72.17;100156.47;4998625;28;20105;-46
2022/03/08 03:17:29;;;;;;;16.80;6.43;;;;;;;-1.51;72.62;100150.34;4997409;28;20081;-45
2022/03/08 03:19:56;;;;;;;18.60;6.22;;;;;;;-1.53;72.46;100136.72;4996012;28;20054;-44
2022/03/08 03:22:22;;;;;;;15.63;5.65;;;;;;;-1.58;72.59;100137.34;5003607;28;20402;-43
2022/03/08 03:24:49;;;;;;;17.80;7.15;;;;;;;-1.57;72.20;100131.50;4995357;28;20053;-41
2022/03/08 03:27:15;;;;;;;22.50;7.95;;;;;;;-1.60;72.13;100121.19;4997307;28;20544;-45
2022/03/08 03:29:42;;;;;;;16.48;6.88;;;;;;;-1.62;72.60;100126.97;5000564;28;20056;-44
2022/03/08 03:32:09;;;;;;;13.38;5.85;;;;;;;-1.63;72.89;100115.94;4996493;28;20050;-43
2022/03/08 03:34:35;;;;;;;22.73;8.02;;;;;;;-1.66;72.08;100109.84;4997129;28;20048;-45
2022/03/08 03:37:02;;;;;;;20.50;7.75;;;;;;;-1.68;72.66;100095.41;4995577;28;20050;-43
2022/03/08 03:39:29;;;;;;;12.88;5.22;;;;;;;-1.71;73.29;100102.00;4996094;28;20076;-42
2022/03/08 03:41:55;;;;;;;17.20;7.50;;;;;;;-1.73;72.83;100091.78;4998066;28;20042;-45
2022/03/08 03:44:22;;;;;;;19.52;7.53;;;;;;;-1.72;73.42;100103.66;5000587;28;20069;-43
2022/03/08 03:46:49;;;;;;;19.33;6.25;;;;;;;-1.73;73.17;100094.31;4997879;28;20061;-44
2022/03/08 03:49:15;;;;;;;17.75;6.63;;;;;;;-1.73;72.92;100093.44;4999488;28;20061;-44
2022/03/08 03:51:42;;;;;;;16.40;6.00;;;;;;;-1.75;72.63;100090.84;5005546;28;20085;-43
2022/03/08 03:54:09;;;;;;;15.70;6.85;;;;;;;-1.75;73.63;100084.88;4997508;28;20049;-45
2022/03/08 03:56:36;;;;;;;21.38;8.93;;;;;;;-1.66;72.58;100090.38;4997530;28;20108;-43
2022/03/08 03:59:03;;;;;;;13.35;5.90;;;;;;;-1.67;72.66;100083.56;4995293;28;20097;-45
2022/03/08 04:01:29;;;;;;;13.60;5.78;;;;;;;-1.71;72.66;100081.69;4994113;28;20050;-44
2022/03/08 04:03:56;;;;;;;15.55;6.25;;;;;;;-1.69;72.66;100080.09;4996580;28;20693;-44
2022/03/08 04:06:23;;;;;;;12.88;5.82;;;;;;;-1.64;72.71;100076.09;5001102;28;20376;-43
2022/03/08 04:08:49;;;;;;;18.95;6.70;;;;;;;-1.60;72.40;100075.44;4998261;28;20078;-46
2022/03/08 04:11:16;;;;;;;14.52;4.82;;;;;;;-1.63;72.42;100079.50;4981773;28;20054;-44
2022/03/08 04:13:42;;;;;;;18.52;5.35;;;;;;;-1.56;72.93;100077.34;4994322;28;20496;-43
2022/03/08 04:16:10;;;;;;;15.30;6.13;;;;;;;-1.59;72.58;100067.03;4996030;28;20677;-44
2022/03/08 04:18:36;;;;;;;12.68;5.55;;;;;;;-1.59;72.38;100067.03;4996490;28;20056;-46
2022/03/08 04:21:03;;;;;;;12.80;5.03;;;;;;;-1.57;71.95;100070.53;5000570;28;20050;-43
2022/03/08 04:23:30;;;;;;;19.10;7.85;;;;;;;-1.52;72.38;100063.09;5001022;28;20046;-42
2022/03/08 04:25:56;;;;;;;10.77;4.57;;;;;;;-1.51;72.23;100053.81;4993359;28;20045;-44
2022/03/08 04:28:24;;;;;;;14.00;5.78;;;;;;;-1.47;72.20;100048.06;4997087;28;20128;-46
2022/03/08 04:30:50;;;;;;;17.67;5.72;;;;;;;-1.48;72.24;100043.81;5003513;28;20050;-44
2022/03/08 04:33:17;;;;;;;13.55;5.40;;;;;;;-1.48;72.21;100029.44;5001204;28;20466;-44
2022/03/08 04:35:43;;;;;;;10.65;5.75;;;;;;;-1.48;71.54;100034.53;4993786;28;20053;-45
2022/03/08 04:38:10;;;;;;;18.58;7.45;;;;;;;-1.50;72.42;100035.22;4995663;28;20662;-47
2022/03/08 04:40:37;;;;;;;14.63;5.78;;;;;;;-1.52;71.88;100037.69;4996648;28;20042;-48
2022/03/08 04:43:03;;;;;;;13.90;5.65;;;;;;;-1.52;71.80;100041.91;5000500;28;20053;-46
2022/03/08 04:45:30;;;;;;;16.05;6.35;;;;;;;-1.47;72.43;100036.25;4998680;28;20046;-47
2022/03/08 04:47:57;;;;;;;15.88;6.03;;;;;;;-1.45;71.76;100043.94;5000541;28;20053;-48
2022/03/08 04:50:23;;;;;;;15.38;6.88;;;;;;;-1.50;71.66;100041.19;4997595;28;20644;-49
2022/03/08 04:52:50;;;;;;;13.30;5.95;;;;;;;-1.46;71.78;100042.19;5002122;28;20057;-45
2022/03/08 04:55:19;;;;;;;13.80;5.28;;;;;;;-1.40;71.13;100041.59;4995615;28;20050;-48
2022/03/08 04:57:47;;;;;;;15.13;5.63;;;;;;;-1.36;71.50;100038.38;4997032;28;20054;-48
2022/03/08 05:00:15;;;;;;;21.85;5.60;;;;;;;-1.40;71.50;100039.06;4994759;28;20046;-46
2022/03/08 05:02:44;;;;;;;12.90;5.15;;;;;;;-1.36;70.96;100039.28;4996941;28;20516;-43
2022/03/08 05:05:12;;;;;;;10.50;4.35;;;;;;;-1.35;71.39;100041.00;4993723;28;20046;-45
2022/03/08 05:07:40;;;;;;;11.88;4.85;;;;;;;-1.37;71.29;100042.63;4994925;28;20053;-43
2022/03/08 05:10:10;;;;;;;13.13;4.95;;;;;;;-1.34;71.12;100042.78;4998383;28;20058;-45
2022/03/08 05:12:37;;;;;;;7.45;3.88;;;;;;;-1.33;71.36;100047.03;4997439;28;20050;-46
2022/03/08 05:15:06;;;;;;;12.20;5.10;;;;;;;-1.34;70.78;100040.22;4998859;28;20563;-46
2022/03/08 05:17:33;;;;;;;11.32;4.13;;;;;;;-1.36;70.99;100036.72;4993085;28;20088;-45
2022/03/08 05:19:59;;;;;;;16.23;6.43;;;;;;;-1.34;71.01;100037.69;4998063;28;20089;-45
2022/03/08 05:22:26;;;;;;;20.02;7.50;;;;;;;-1.35;71.16;100035.91;5002230;28;20049;-44
2022/03/08 05:24:52;;;;;;;17.98;6.85;;;;;;;-1.33;71.21;100039.41;4999769;28;20050;-47
2022/03/08 05:27:19;;;;;;;13.88;6.38;;;;;;;-1.31;71.01;100031.88;5000629;28;20054;-43
2022/03/08 05:29:47;;;;;;;16.63;7.13;;;;;;;-1.31;70.72;100035.25;4997601;28;20540;-45
2022/03/08 05:32:14;;;;;;;14.57;6.13;;;;;;;-1.28;70.67;100023.50;5003258;28;20518;-47
2022/03/08 05:34:41;;;;;;;15.98;6.57;;;;;;;-1.27;71.10;100027.78;4997809;28;20102;-43
2022/03/08 05:37:07;;;;;;;12.48;6.32;;;;;;;-1.31;70.64;100022.56;5001112;28;20486;-42
2022/03/08 05:39:35;;;;;;;13.45;6.03;;;;;;;-1.31;71.12;100031.88;5000348;28;20104;-44
2022/03/08 05:42:02;;;;;;;16.58;5.72;;;;;;;-1.35;71.32;100038.47;5000973;28;20061;-43
2022/03/08 05:44:28;;;;;;;15.82;6.22;;;;;;;-1.33;71.16;100039.41;5000093;28;20042;-44
2022/03/08 05:46:55;;;;;;;17.13;6.22;;;;;;;-1.36;71.18;100029.09;4996370;28;20050;-45
2022/03/08 05:49:23;;;;;;;16.27;6.53;;;;;;;-1.37;71.27;100029.91;5006162;28;20042;-44
2022/03/08 05:51:50;;;;;;;13.20;5.07;;;;;;;-1.40;70.87;100037.41;5000723;28;20189;-44
2022/03/08 05:54:16;;;;;;;14.70;5.75;;;;;;;-1.39;71.26;100028.97;5000252;28;20513;-45
2022/03/08 05:56:43;;;;;;;12.30;5.30;;;;;;;-1.40;71.68;100022.16;5000580;28;20051;-42
2022/03/08 05:59:10;;;;;;;13.43;5.47;;;;;;;-1.40;71.31;100021.25;4999588;28;20134;-45
2022/03/08 06:01:36;;;;;;;9.02;3.85;;;;;;;-1.47;70.73;100031.16;4997382;28;20054;-44
2022/03/08 06:04:03;;;;;;;15.02;5.10;;;;;;;-1.47;71.14;100025.22;4999986;28;20455;-45
2022/03/08 06:06:30;;;;;;;11.85;5.45;;;;;;;-1.51;71.28;100013.16;5005686;28;20053;-45
2022/03/08 06:08:57;;;;;;;18.92;6.10;;;;;;;-1.49;71.49;100016.66;4999807;28;20132;-44
2022/03/08 06:11:23;;;;;;;6.20;2.60;;;;;;;-1.53;71.20;100019.88;4998107;28;20054;-46
2022/03/08 06:13:50;;;;;;;13.15;4.53;;;;;;;-1.57;71.52;100021.38;4999463;28;20108;-46
2022/03/08 06:16:16;;;;;;;18.15;5.47;;;;;;;-1.59;71.22;100021.31;4997406;28;20045;-43
2022/03/08 06:18:43;;;;;;;15.43;6.20;;;;;;;-1.60;71.08;100027.19;5002417;28;20050;-43
2022/03/08 06:21:10;;;;;;;13.27;5.97;;;;;;;-1.64;71.36;100027.84;4999697;28;20054;-46
2022/03/08 06:23:37;;;;;;;15.23;5.82;;;;;;;-1.66;71.44;100033.66;5003071;28;20060;-45
2022/03/08 06:26:03;;;;;;;17.50;7.18;;;;;;;-1.73;71.34;100023.22;4995474;28;20206;-45
2022/03/08 06:28:31;;;;;;;12.98;4.82;;;;;;;-1.76;72.11;100023.06;5004229;28;20053;-43
2022/03/08 06:30:58;;;;;;;12.82;4.90;;;;;;;-1.75;71.82;100026.47;4998225;28;20058;-44
2022/03/08 06:33:26;;;;;;;19.05;5.65;;;;;;;-1.75;71.73;100029.03;4998613;28;20043;-45
2022/03/08 06:35:53;;;;;;;11.95;5.30;;;;;;;-1.78;71.87;100033.94;5001519;28;20101;-44
2022/03/08 06:38:20;;;;;;;9.57;4.28;;;;;;;-1.78;71.35;100033.94;4999533;28;20050;-44
2022/03/08 06:40:46;;;;;;;13.65;4.03;;;;;;;-1.83;72.37;100039.69;5004005;28;20061;-43
2022/03/08 06:43:13;;;;;;;9.88;4.75;;;;;;;-1.81;72.41;100048.25;4998005;28;20100;-44
2022/03/08 06:45:39;;;;;;;13.00;4.40;;;;;;;-1.76;71.44;100039.97;5000747;28;20484;-44
2022/03/08 06:48:06;;;;;;;14.00;6.10;;;;;;;-1.73;71.37;100042.63;4999072;28;20055;-46
2022/03/08 06:50:33;;;;;;;14.93;5.22;;;;;;;-1.75;72.19;100041.72;4997822;28;20050;-46
2022/03/08 06:52:59;;;;;;;14.00;6.53;;;;;;;-1.77;72.13;100034.03;5001320;28;20621;-48
2022/03/08 06:55:26;;;;;;;18.05;5.85;;;;;;;-1.74;71.95;100035.81;5002857;28;20129;-47
2022/03/08 06:57:52;;;;;;;13.55;5.70;;;;;;;-1.75;71.48;100034.97;4995073;28;20099;-44
2022/03/08 07:00:20;;;;;;;12.30;3.83;;;;;;;-1.74;72.46;100025.66;4995965;28;20058;-43
2022/03/08 07:02:47;;;;;;;15.02;5.50;;;;;;;-1.72;72.66;100024.09;4996714;28;20056;-46
2022/03/08 07:05:13;;;;;;;16.33;5.72;;;;;;;-1.74;72.46;100021.47;4994280;28;20045;-44
2022/03/08 07:07:40;;;;;;;20.08;5.18;;;;;;;-1.72;72.86;100019.84;5000402;28;20513;-46
2022/03/08 07:10:08;;;;;;;12.88;5.43;;;;;;;-1.64;72.57;100007.53;4993845;28;20524;-46
2022/03/08 07:12:34;;;;;;;20.15;5.72;;;;;;;-1.64;72.75;100007.53;4996894;28;20417;-46
2022/03/08 07:15:01;;;;;;;13.82;6.25;;;;;;;-1.60;72.92;100003.44;4997776;28;20049;-45
2022/03/08 07:17:28;;;;;;;15.48;6.18;;;;;;;-1.55;72.07;99997.78;4990477;28;20054;-47
2022/03/08 07:19:54;;;;;;;15.68;6.35;;;;;;;-1.50;71.67;100000.53;4995190;28;20490;-46
2022/03/08 07:22:21;;;;;;;17.42;6.25;;;;;;;-1.42;71.89;99998.31;4997591;28;20046;-48
2022/03/08 07:24:47;;;;;;;17.95;5.78;;;;;;;-1.40;72.19;99993.31;4996999;28;20124;-42
2022/03/08 07:27:14;;;;;;;18.13;6.95;;;;;;;-1.33;72.16;100002.97;4991333;28;20103;-48
2022/03/08 07:29:43;;;;;;;20.55;6.97;;;;;;;-1.26;72.18;100004.09;5000373;28;20758;-45
2022/03/08 07:32:10;;;;;;;16.67;5.97;;;;;;;-1.21;71.29;100003.50;4995726;28;20050;-45
2022/03/08 07:34:37;;;;;;;17.42;7.47;;;;;;;-1.16;71.89;100006.25;5003809;28;20050;-46
2022/03/08 07:37:04;;;;;;;14.13;5.50;;;;;;;-1.11;72.48;99998.84;4996468;28;20535;-45
2022/03/08 07:39:30;;;;;;;16.50;7.05;;;;;;;-1.02;71.69;99993.28;4990451;28;20050;-48
2022/03/08 07:41:57;;;;;;;14.02;5.90;;;;;;;-1.00;72.25;99997.63;4996991;28;20051;-42
2022/03/08 07:44:23;;;;;;;13.25;5.50;;;;;;;-0.93;71.60;99986.94;4995530;28;20058;-44
2022/03/08 07:46:51;;;;;;;17.40;7.28;;;;;;;-0.71;72.26;99990.38;4990551;28;20050;-45
2022/03/08 07:49:17;;;;;;;19.08;6.65;;;;;;;-0.24;71.88;99986.31;4993755;28;20050;-44
2022/03/08 07:51:48;;;;;;;19.88;6.80;;;;;;;0.27;69.96;99984.88;4991270;28;20124;-44
2022/03/08 07:54:15;;;;;;;14.75;5.00;;;;;;;0.70;69.31;99985.59;4992773;28;20050;-44
2022/03/08 07:56:42;;;;;;;21.90;6.35;;;;;;;1.10;67.95;99986.16;4994510;28;20072;-44
2022/03/08 07:59:08;;;;;;;13.95;5.43;;;;;;;1.37;66.68;99986.25;4991550;28;20058;-43
2022/03/08 08:01:35;;;;;;;21.48;9.13;;;;;;;1.59;66.57;99981.81;4994225;28;20049;-50
2022/03/08 08:04:02;;;;;;;20.80;8.27;;;;;;;1.84;65.05;99971.53;4993913;28;20855;-46
2022/03/08 08:06:29;;;;;;;19.73;7.07;;;;;;;2.08;64.13;99975.69;4992790;28;20049;-45
2022/03/08 08:08:56;;;;;;;14.70;5.82;;;;;;;2.34;64.13;99980.72;4992782;28;20053;-46
2022/03/08 08:11:22;;;;;;;19.60;7.18;;;;;;;2.52;64.14;99973.59;4992066;28;20062;-45
2022/03/08 08:13:49;;;;;;;16.92;7.57;;;;;;;2.64;62.59;99977.31;4993474;28;20054;-45
2022/03/08 08:16:17;;;;;;;15.68;6.80;;;;;;;2.86;61.62;99975.34;5000423;28;20056;-43
2022/03/08 08:18:44;;;;;;;21.13;9.00;;;;;;;3.08;61.28;99994.75;4993160;28;20091;-44
2022/03/08 08:21:11;;;;;;;14.95;7.68;;;;;;;3.35;61.38;99988.63;5000207;28;20046;-45
2022/03/08 08:23:37;;;;;;;23.38;7.65;;;;;;;3.66;60.24;99989.38;4997285;28;20079;-44
2022/03/08 08:26:04;;;;;;;15.48;7.15;;;;;;;3.96;58.94;99980.66;4993318;28;20038;-45
2022/03/08 08:28:30;;;;;;;21.48;8.38;;;;;;;4.31;59.47;99987.44;4996885;28;20125;-43
2022/03/08 08:30:58;;;;;;;21.73;7.97;;;;;;;4.66;58.60;99968.47;4999571;28;20688;-48
2022/03/08 08:33:26;;;;;;;16.85;7.75;;;;;;;4.86;57.13;99974.03;4999226;28;20592;-44
2022/03/08 08:35:53;;;;;;;14.77;5.97;;;;;;;5.04;56.92;99971.78;5000238;28;20057;-46
2022/03/08 08:38:20;;;;;;;21.00;8.32;;;;;;;5.08;56.00;99964.16;4994547;28;20054;-49
2022/03/08 08:40:46;;;;;;;16.85;6.75;;;;;;;5.09;56.49;99965.00;4999617;28;20050;-45
2022/03/08 08:43:13;;;;;;;18.10;7.45;;;;;;;5.19;56.32;99966.03;4993508;28;20042;-45
2022/03/08 08:45:39;;;;;;;17.67;8.82;;;;;;;5.31;55.52;99956.00;4993622;28;20046;-48
2022/03/08 08:48:07;;;;;;;19.90;8.60;;;;;;;5.46;54.27;99941.69;4994445;28;20051;-48
2022/03/08 08:50:35;;;;;;;17.77;6.93;;;;;;;5.65;55.34;99941.13;5001198;28;20097;-48
2022/03/08 08:53:04;;;;;;;18.95;8.88;;;;;;;5.96;54.65;99945.88;4998810;28;20576;-49
2022/03/08 08:55:30;;;;;;;20.23;7.45;;;;;;;6.27;54.05;99941.19;4996735;28;20058;-47
2022/03/08 08:57:57;;;;;;;20.17;9.40;;;;;;;6.66;53.93;99951.13;5002953;28;20045;-50
2022/03/08 09:00:23;;;;;;;16.20;7.28;;;;;;;6.80;51.89;99956.41;5005828;28;20053;-49
2022/03/08 09:02:53;;;;;;;19.42;8.27;;;;;;;7.16;53.44;99955.06;5007023;28;20053;-48
2022/03/08 09:05:20;;;;;;;21.35;8.68;;;;;;;7.61;52.22;99962.34;5000741;28;20409;-47
2022/03/08 09:07:47;;;;;;;22.08;8.05;;;;;;;7.86;51.32;99967.66;4998606;28;20092;-48
2022/03/08 09:10:15;;;;;;;23.27;7.85;;;;;;;8.07;51.07;99971.25;5001552;28;20072;-45
2022/03/08 09:12:43;;;;;;;19.80;8.30;;;;;;;8.54;51.63;99977.56;5006525;28;20497;-47
2022/03/08 09:15:10;;;;;;;20.00;8.30;;;;;;;8.71;48.29;99984.50;4995910;28;20129;-51
2022/03/08 09:17:37;;;;;;;22.13;9.50;;;;;;;8.72;49.38;99979.34;4996586;28;20445;-47
2022/03/08 09:20:05;;;;;;;20.42;9.00;;;;;;;8.61;47.80;99975.84;4999210;28;20046;-46
2022/03/08 09:22:32;;;;;;;15.80;7.93;;;;;;;8.70;49.05;99977.63;4999188;28;20361;-45
2022/03/08 09:24:59;;;;;;;12.45;5.68;;;;;;;9.03;48.27;99983.75;4999979;28;20144;-46
2022/03/08 09:27:25;;;;;;;21.52;9.68;;;;;;;9.25;48.29;99974.31;5001660;28;21094;-46
2022/03/08 09:29:52;;;;;;;20.10;9.35;;;;;;;9.19;47.33;99970.88;5001303;28;20546;-47
2022/03/08 09:32:18;;;;;;;30.70;10.73;;;;;;;8.92;46.61;99970.78;4997179;28;20062;-47
2022/03/08 09:34:45;;;;;;;19.27;8.27;;;;;;;8.73;46.90;99968.19;4997221;28;20046;-49
2022/03/08 09:37:12;;;;;;;20.40;9.07;;;;;;;8.86;48.04;99960.47;5000496;28;20532;-48
2022/03/08 09:39:38;;;;;;;15.43;7.13;;;;;;;8.75;47.67;99955.28;5002389;28;20493;-48
2022/03/08 09:42:05;;;;;;;15.95;7.13;;;;;;;8.70;47.57;99942.34;4998472;28;20049;-47
2022/03/08 09:44:32;;;;;;;20.23;8.52;;;;;;;8.79;47.70;99945.81;4995084;28;20104;-49
2022/03/08 09:46:59;;;;;;;19.70;8.95;;;;;;;8.68;47.95;99958.69;5003928;28;20042;-45
2022/03/08 09:49:26;;;;;;;18.02;7.47;;;;;;;8.87;47.63;99949.25;5003388;28;20048;-45
2022/03/08 09:51:53;;;;;;;19.15;9.10;;;;;;;8.84;47.49;99946.66;4994947;28;20063;-50
2022/03/08 09:54:20;;;;;;;17.48;8.65;;;;;;;8.92;47.95;99939.78;5000716;28;20042;-48
2022/03/08 09:56:47;;;;;;;18.83;7.75;;;;;;;9.00;47.01;99930.38;4995459;28;20062;-51
2022/03/08 09:59:15;;;;;;;17.52;6.88;;;;;;;9.09;48.20;99939.00;4996424;28;20490;-47
2022/03/08 10:01:43;;;;;;;19.10;7.40;;;;;;;9.34;47.83;99933.84;5002130;28;20126;-48
2022/03/08 10:04:14;;;;;;;16.33;7.10;;;;;;;9.46;47.28;99939.00;5001128;28;20073;-52
2022/03/08 10:07:07;;;;;;;16.92;7.32;;;;;;;9.18;46.52;99915.72;4998912;28;20529;-51
2022/03/08 10:09:34;;;;;;;18.48;8.55;;;;;;;9.18;46.84;99915.72;5003361;28;20046;-51
2022/03/08 10:12:01;;;;;;;17.70;8.27;;;;;;;9.03;46.81;99913.13;5000499;28;20104;-51
2022/03/08 10:14:37;;;;;;;17.67;7.97;;;;;;;9.12;47.24;99918.31;4999284;28;20053;-49
2022/03/08 10:17:06;;;;;;;15.05;6.95;;;;;;;9.08;47.53;99921.75;4998976;28;20445;-47
2022/03/08 10:19:49;;;;;;;19.42;8.45;;;;;;;9.18;47.59;99902.81;4999832;28;20046;-46
2022/03/08 10:22:29;;;;;;;20.33;9.15;;;;;;;9.39;46.28;99917.47;4997779;28;20054;-49
2022/03/08 10:30:49;;;;;;;16.27;8.30;;;;;;;9.46;47.20;99902.81;5041552;28;20392;-47
2022/03/08 10:33:21;;;;;;;19.83;10.00;;;;;;;9.61;47.33;99893.31;5017970;28;20144;-46
2022/03/08 10:35:53;;;;;;;21.63;10.65;;;;;;;9.58;46.62;99890.72;5019926;28;20049;-47
2022/03/08 10:38:20;;;;;;;20.38;9.98;;;;;;;9.55;47.16;99895.94;4999988;28;20116;-45
2022/03/08 10:40:47;;;;;;;19.50;10.02;;;;;;;9.63;46.95;99899.38;5032982;28;20057;-45
2022/03/08 10:43:16;;;;;;;19.77;10.73;;;;;;;9.55;46.50;99890.75;5001524;28;20116;-46
2022/03/08 10:45:46;;;;;;;18.55;9.50;;;;;;;9.50;47.27;99891.59;4998057;28;20055;-45
2022/03/08 10:48:14;;;;;;;18.63;9.60;;;;;;;9.49;47.41;99892.47;5032942;28;20050;-48
2022/03/08 10:50:42;;;;;;;19.15;8.27;;;;;;;9.46;47.93;99887.28;5026636;28;20069;-44
2022/03/08 10:53:11;;;;;;;21.38;10.82;;;;;;;9.69;48.16;99894.16;5000156;28;20049;-45
2022/03/08 10:55:48;;;;;;;18.60;9.90;;;;;;;9.80;48.09;99895.88;4999983;28;20104;-47
2022/03/08 10:58:14;;;;;;;;;;;;;;;9.67;46.67;99901.09;5002643;28;20049;-48
2022/03/08 11:00:45;;;;;;;21.35;10.85;;;;;;;9.66;47.19;99881.22;4998700;28;19928;-45
2022/03/08 11:03:15;;;;;;;17.65;10.25;;;;;;;9.51;46.61;99884.72;5001002;28;20686;-48
2022/03/08 11:05:44;;;;;;;23.45;10.38;;;;;;;9.42;48.28;99880.41;4980457;28;20512;-47
2022/03/08 11:08:12;;;;;;;24.60;11.82;;;;;;;9.11;47.56;99876.13;4998131;28;20053;-48
2022/03/08 11:10:40;;;;;;;23.45;10.38;;;;;;;8.96;49.92;99869.22;4995885;28;20078;-50
2022/03/08 11:13:08;;;;;;;22.60;11.00;;;;;;;8.80;49.43;99870.91;5002449;28;20049;-45
2022/03/08 11:15:38;;;;;;;16.52;9.35;;;;;;;8.57;49.16;99883.75;5000008;28;20053;-47
2022/03/08 11:18:08;;;;;;;17.85;9.07;;;;;;;8.62;51.61;99884.66;5033217;28;20067;-48
2022/03/08 11:20:36;;;;;;;20.38;10.70;;;;;;;8.57;51.54;99883.75;5026949;28;20125;-49
2022/03/08 11:23:05;;;;;;;20.13;9.48;;;;;;;8.56;50.90;99882.91;5000017;28;20055;-48
2022/03/08 11:25:35;;;;;;;17.85;9.60;;;;;;;8.36;50.13;99880.22;5029005;28;20046;-47
2022/03/08 11:28:19;;;;;;;23.38;10.05;;;;;;;8.32;51.95;99875.91;4998605;28;20061;-49